Time;durP1;ratioP1;P1;durP2;ratioP2;P2;SDS_P1;SDS_P2;PMS_P1;PMS_P2;Temp;Humidity;BMP_temperature;BMP_pressure;BME280_temperature;BME280_humidity;BME280_pressure;Samples;Min_cycle;Max_cycle;Signal;HPM_P1;HPM_P2
2022/07/14 00:00:38;;;;;;;5.35;0.90;;;;;;;20.89;43.44;98963.38;4469732;32;20089;-70
2022/07/14 00:03:05;;;;;;;2.83;0.80;;;;;;;20.85;43.62;98972.78;4468664;32;20570;-70
2022/07/14 00:05:35;;;;;;;1.05;0.75;;;;;;;20.90;43.58;98969.50;4469759;32;20097;-70
2022/07/14 00:08:03;;;;;;;2.42;0.90;;;;;;;20.87;43.52;98967.25;4470059;32;20092;-70
2022/07/14 00:10:31;;;;;;;3.47;0.80;;;;;;;20.79;43.75;98973.56;4470023;32;20085;-70
2022/07/14 00:12:58;;;;;;;3.70;0.70;;;;;;;20.94;43.42;98964.59;4469549;32;20089;-70
2022/07/14 00:15:26;;;;;;;2.03;0.88;;;;;;;21.01;43.34;98968.91;4469649;32;20529;-70
2022/07/14 00:17:55;;;;;;;3.75;1.15;;;;;;;20.95;43.52;98972.37;4469652;32;20116;-70
2022/07/14 00:20:22;;;;;;;1.90;1.05;;;;;;;20.97;43.62;98974.84;4469612;32;20425;-70
2022/07/14 00:22:50;;;;;;;4.35;0.98;;;;;;;20.91;44.02;98963.16;4469184;32;20841;-70
2022/07/14 00:25:17;;;;;;;2.28;0.77;;;;;;;20.88;44.41;98968.91;4469726;32;20093;-70
2022/07/14 00:27:46;;;;;;;1.23;0.85;;;;;;;20.88;44.59;98968.91;4469580;32;20104;-70
2022/07/14 00:30:13;;;;;;;5.43;1.10;;;;;;;20.87;44.72;98964.59;4469787;32;20384;-70
2022/07/14 00:32:40;;;;;;;1.02;0.90;;;;;;;20.82;44.89;98962.50;4469934;32;20442;-70
2022/07/14 00:35:08;;;;;;;1.00;0.90;;;;;;;20.80;45.09;98972.53;4469561;32;20571;-70
2022/07/14 00:37:37;;;;;;;1.25;1.08;;;;;;;20.84;45.18;98967.66;4469566;32;20115;-70
2022/07/14 00:40:06;;;;;;;2.67;1.10;;;;;;;20.79;45.41;98965.56;4469357;32;20101;-70
2022/07/14 00:42:38;;;;;;;4.25;1.20;;;;;;;20.85;45.42;98963.97;4469516;32;20486;-70
2022/07/14 00:45:06;;;;;;;1.77;0.98;;;;;;;20.80;45.71;98966.38;4469322;32;20115;-70
2022/07/14 00:47:35;;;;;;;1.23;0.80;;;;;;;20.85;45.66;98961.31;4469725;32;20096;-70
2022/07/14 00:50:03;;;;;;;4.22;0.80;;;;;;;20.82;45.85;98959.03;4469542;32;20524;-70
2022/07/14 00:52:38;;;;;;;9.73;1.02;;;;;;;20.89;45.77;98960.72;4468481;32;20146;-70
2022/07/14 00:55:06;;;;;;;3.47;1.10;;;;;;;20.88;45.99;98960.91;4469428;32;20585;-70
2022/07/14 00:57:33;;;;;;;1.15;1.05;;;;;;;20.85;46.19;98963.97;4469379;32;20092;-70
2022/07/14 01:00:01;;;;;;;1.52;1.42;;;;;;;20.83;46.35;98955.34;4479925;32;20114;-70
2022/07/14 01:02:28;;;;;;;1.15;0.98;;;;;;;20.78;46.42;98960.44;4485155;31;20101;-70
2022/07/14 01:04:55;;;;;;;3.70;0.93;;;;;;;20.83;46.34;98969.50;4485071;31;20133;-70
2022/07/14 01:07:23;;;;;;;1.98;1.00;;;;;;;20.82;46.35;98967.84;4485051;32;20118;-70
2022/07/14 01:09:50;;;;;;;1.80;0.90;;;;;;;20.87;46.25;98965.37;4484978;32;20084;-70
2022/07/14 01:12:17;;;;;;;0.75;0.75;;;;;;;20.91;46.36;98963.16;4485023;31;20574;-70
2022/07/14 01:14:45;;;;;;;1.58;1.08;;;;;;;20.98;46.30;98964.00;4484941;32;20143;-70
2022/07/14 01:17:12;;;;;;;1.60;1.42;;;;;;;20.93;46.50;98966.44;4484987;31;20101;-70
2022/07/14 01:19:41;;;;;;;2.62;1.25;;;;;;;20.95;46.56;98964.41;4484758;31;20447;-70
2022/07/14 01:22:08;;;;;;;1.10;1.00;;;;;;;20.97;46.49;98969.53;4483951;32;20116;-70
2022/07/14 01:24:36;;;;;;;2.08;0.98;;;;;;;20.89;46.67;98965.19;4485063;31;20119;-70
2022/07/14 01:27:03;;;;;;;1.80;1.00;;;;;;;20.84;46.69;98968.44;4484758;32;20100;-70
2022/07/14 01:29:30;;;;;;;1.73;0.85;;;;;;;20.80;46.84;98977.03;4484901;32;20442;-70
2022/07/14 01:31:58;;;;;;;1.70;0.93;;;;;;;20.79;46.84;98967.41;4484735;31;20092;-70
2022/07/14 01:34:27;;;;;;;1.55;0.93;;;;;;;20.80;46.49;98963.72;4483515;32;20119;-70
2022/07/14 01:36:55;;;;;;;8.25;1.00;;;;;;;20.76;46.31;98967.78;4484887;31;20096;-70
2022/07/14 01:39:22;;;;;;;2.28;1.05;;;;;;;20.72;46.11;98973.53;4484677;31;20581;-70
2022/07/14 01:41:49;;;;;;;1.37;1.20;;;;;;;20.64;46.07;98971.00;4484648;32;20176;-70
2022/07/14 01:44:17;;;;;;;1.27;0.95;;;;;;;20.57;46.20;98967.47;4484412;32;20097;-70
2022/07/14 01:46:44;;;;;;;2.45;1.20;;;;;;;20.57;46.31;98964.81;4484832;31;20156;-70
2022/07/14 01:49:12;;;;;;;1.90;1.27;;;;;;;20.65;46.31;98970.03;4484991;32;20153;-70
2022/07/14 01:51:39;;;;;;;1.50;1.00;;;;;;;20.73;46.34;98969.84;4484541;31;20085;-70
2022/07/14 01:54:07;;;;;;;1.70;1.40;;;;;;;20.83;46.20;98960.66;4484837;32;20585;-70
2022/07/14 01:56:39;;;;;;;3.22;1.50;;;;;;;20.79;46.41;98962.06;4484508;32;20151;-70
2022/07/14 01:59:08;;;;;;;1.73;1.30;;;;;;;20.82;46.51;98959.03;4484654;31;20088;-70
2022/07/14 02:01:42;;;;;;;4.62;1.35;;;;;;;20.87;46.41;98959.25;4484481;31;20149;-70
2022/07/14 02:04:13;;;;;;;1.75;1.25;;;;;;;20.88;46.49;98955.59;4484839;31;20115;-70
2022/07/14 02:06:45;;;;;;;2.00;1.17;;;;;;;20.85;46.63;98953.31;4468600;32;20136;-70
2022/07/14 02:09:13;;;;;;;1.65;1.17;;;;;;;20.79;46.79;98968.25;4469011;32;20129;-70
2022/07/14 02:14:29;;;;;;;3.28;1.20;;;;;;;20.83;46.68;98969.50;4468650;32;20092;-71
2022/07/14 02:16:57;;;;;;;5.30;1.10;;;;;;;20.81;46.80;98957.37;4468662;32;20096;-70
2022/07/14 02:19:24;;;;;;;2.78;1.20;;;;;;;20.70;47.03;98953.47;4468608;32;20559;-70
2022/07/14 02:21:54;;;;;;;1.90;1.10;;;;;;;20.60;47.38;98959.09;4468324;32;20096;-70
2022/07/14 02:24:22;;;;;;;1.65;1.12;;;;;;;20.58;47.51;98960.34;4468843;32;20108;-70
2022/07/14 02:26:52;;;;;;;3.78;1.27;;;;;;;20.50;47.70;98961.28;4468578;32;20161;-70
2022/07/14 02:29:20;;;;;;;3.15;1.27;;;;;;;20.44;47.88;98964.75;4468477;32;20111;-70
2022/07/14 02:31:48;;;;;;;2.80;1.17;;;;;;;20.39;48.02;98966.19;4468431;32;20100;-70
2022/07/14 02:34:16;;;;;;;2.83;1.20;;;;;;;20.30;48.28;98962.03;4468422;32;20119;-70
2022/07/14 02:36:44;;;;;;;1.12;1.02;;;;;;;20.35;48.26;98964.09;4468170;32;20096;-70
2022/07/14 02:39:13;;;;;;;2.50;1.42;;;;;;;20.25;48.52;98966.28;4468397;32;20103;-70
2022/07/14 02:41:43;;;;;;;6.45;1.48;;;;;;;20.24;48.58;98969.94;4468075;32;20092;-70
2022/07/14 02:44:11;;;;;;;1.95;1.10;;;;;;;20.17;48.78;98968.06;4468285;32;20088;-70
2022/07/14 02:46:39;;;;;;;4.55;1.37;;;;;;;20.10;49.04;98974.38;4469943;32;20123;-70
2022/07/14 02:49:06;;;;;;;3.37;1.25;;;;;;;20.07;49.15;98970.25;4470436;32;20157;-70
2022/07/14 02:51:34;;;;;;;2.15;1.10;;;;;;;20.03;49.33;98967.16;4470565;32;20434;-70
2022/07/14 02:54:01;;;;;;;2.65;1.25;;;;;;;19.98;49.51;98974.88;4470439;32;20480;-70
2022/07/14 02:56:29;;;;;;;3.65;1.00;;;;;;;19.94;49.68;98975.47;4470682;32;20134;-70
2022/07/14 02:58:57;;;;;;;3.80;1.10;;;;;;;19.97;49.61;98975.91;4473883;32;20096;-70
2022/07/14 03:01:24;;;;;;;2.12;1.12;;;;;;;19.95;49.75;98977.13;4486290;31;20123;-70
2022/07/14 03:03:51;;;;;;;2.33;1.17;;;;;;;19.92;49.89;98974.84;4485829;31;20463;-70
2022/07/14 03:06:19;;;;;;;2.65;0.90;;;;;;;19.93;49.88;98979.97;4485935;31;20096;-70
2022/07/14 03:08:47;;;;;;;1.40;1.30;;;;;;;19.89;50.00;98984.00;4486003;32;20084;-70
2022/07/14 03:11:15;;;;;;;1.27;1.10;;;;;;;19.87;50.11;98980.75;4486220;32;20151;-70
2022/07/14 03:13:42;;;;;;;1.20;1.02;;;;;;;19.86;50.27;98979.09;4485495;31;20104;-70
2022/07/14 03:16:10;;;;;;;1.10;1.00;;;;;;;19.83;50.34;98971.50;4486270;31;20149;-70
2022/07/14 03:18:39;;;;;;;3.12;1.35;;;;;;;19.84;50.38;98976.62;4485880;32;20152;-70
2022/07/14 03:21:09;;;;;;;3.03;1.25;;;;;;;19.86;50.41;98973.75;4486151;31;20480;-70
2022/07/14 03:23:37;;;;;;;1.45;0.93;;;;;;;19.91;50.36;98976.69;4485964;31;20092;-70
2022/07/14 03:26:05;;;;;;;3.15;0.88;;;;;;;19.94;50.33;98970.13;4486204;31;20119;-70
2022/07/14 03:28:33;;;;;;;5.10;1.10;;;;;;;19.96;50.31;98973.44;4485981;31;20153;-70
2022/07/14 03:31:02;;;;;;;3.03;1.10;;;;;;;20.07;50.10;98977.41;4485915;31;20119;-70
2022/07/14 03:33:30;;;;;;;3.37;1.10;;;;;;;20.26;49.53;98968.75;4486052;31;20088;-70
2022/07/14 03:35:58;;;;;;;2.12;1.10;;;;;;;20.43;49.09;98979.91;4486143;31;20088;-70
2022/07/14 03:38:25;;;;;;;2.42;1.02;;;;;;;20.54;48.76;98979.34;4485739;31;20115;-70
2022/07/14 03:41:07;;;;;;;2.00;1.00;;;;;;;20.68;48.33;98977.63;4485902;32;20081;-70
2022/07/14 03:43:35;;;;;;;2.65;0.80;;;;;;;20.76;48.03;98973.13;4485665;31;20092;-70
2022/07/14 03:46:03;;;;;;;1.10;1.00;;;;;;;20.73;47.85;98980.50;4486041;31;20138;-70
2022/07/14 03:48:32;;;;;;;6.32;1.10;;;;;;;20.82;47.52;98983.00;4485832;31;20092;-70
2022/07/14 03:51:00;;;;;;;1.10;0.90;;;;;;;20.83;47.60;98980.16;4485895;31;20157;-70
2022/07/14 03:53:32;;;;;;;2.47;0.90;;;;;;;20.88;47.64;98985.69;4485874;31;20482;-70
2022/07/14 03:56:00;;;;;;;1.10;1.00;;;;;;;20.94;47.37;98985.91;4485578;31;20108;-71
2022/07/14 03:58:31;;;;;;;1.95;1.35;;;;;;;21.05;47.20;98982.69;4484901;31;20478;-70
2022/07/14 04:00:58;;;;;;;2.37;1.12;;;;;;;21.05;47.09;98985.34;4485821;32;20445;-70
2022/07/14 04:03:26;;;;;;;3.85;1.10;;;;;;;21.06;47.00;98982.47;4485604;32;20118;-70
2022/07/14 04:05:53;;;;;;;1.17;1.02;;;;;;;21.17;46.84;98977.59;4485451;32;20100;-70
2022/07/14 04:08:20;;;;;;;1.00;0.90;;;;;;;21.19;46.74;98975.53;4485662;32;20093;-70
2022/07/14 04:10:48;;;;;;;2.72;0.93;;;;;;;21.27;46.43;98986.84;4485697;31;20092;-70
2022/07/14 04:13:15;;;;;;;1.58;1.10;;;;;;;21.36;45.97;98981.31;4485485;31;20100;-70
2022/07/14 04:15:42;;;;;;;3.22;1.00;;;;;;;21.49;45.80;98981.34;4485662;32;20156;-70
2022/07/14 04:18:10;;;;;;;2.03;1.30;;;;;;;21.54;45.71;98981.56;4485680;31;20096;-70
2022/07/14 04:20:37;;;;;;;2.90;1.10;;;;;;;21.65;45.49;98979.34;4485171;32;20092;-70
2022/07/14 04:23:05;;;;;;;1.77;0.98;;;;;;;21.69;45.44;98973.38;4485582;32;20761;-70
2022/07/14 04:25:32;;;;;;;3.50;1.30;;;;;;;21.77;45.27;98981.22;4485441;32;20104;-70
2022/07/14 04:28:00;;;;;;;3.60;1.15;;;;;;;22.00;44.87;98987.97;4485525;32;20117;-70
2022/07/14 04:30:28;;;;;;;1.48;1.00;;;;;;;22.21;44.39;98980.75;4485407;31;20127;-70
2022/07/14 04:32:56;;;;;;;2.80;1.10;;;;;;;22.45;43.95;98977.47;4485396;31;20566;-70
2022/07/14 04:35:23;;;;;;;3.05;1.50;;;;;;;22.64;43.56;98974.94;4485585;31;20151;-70
2022/07/14 04:37:51;;;;;;;2.25;1.20;;;;;;;22.80;43.17;98976.31;4485404;31;20093;-71
2022/07/14 04:40:19;;;;;;;2.33;0.98;;;;;;;22.97;42.27;98974.00;4485432;32;20108;-70
2022/07/14 04:42:47;;;;;;;2.12;0.95;;;;;;;23.15;42.09;98973.31;4485038;32;20100;-71
2022/07/14 04:45:14;;;;;;;1.02;0.93;;;;;;;23.24;41.76;98973.88;4485247;31;20165;-70
2022/07/14 04:47:43;;;;;;;1.67;1.05;;;;;;;23.45;41.52;98975.41;4485541;31;20080;-70
2022/07/14 04:52:57;;;;;;;1.83;0.90;;;;;;;23.61;41.26;98976.75;4485440;31;20167;-70
2022/07/14 04:55:26;;;;;;;3.42;1.20;;;;;;;23.53;41.26;98981.31;4485588;31;20146;-70
2022/07/14 04:57:53;;;;;;;1.27;0.98;;;;;;;23.33;41.82;98980.59;4485120;32;20430;-70
2022/07/14 05:00:21;;;;;;;1.10;0.90;;;;;;;23.18;42.28;98981.75;4485167;31;20524;-70
2022/07/14 05:02:48;;;;;;;1.48;1.08;;;;;;;23.02;42.57;98992.88;4484272;31;20157;-71
2022/07/14 05:05:15;;;;;;;3.40;1.20;;;;;;;22.97;42.60;98990.84;4484769;31;20091;-71
2022/07/14 05:07:43;;;;;;;1.75;1.37;;;;;;;23.11;42.34;98988.97;4483804;32;20156;-70
2022/07/14 05:10:17;;;;;;;2.25;1.15;;;;;;;23.45;41.66;98992.28;4483837;32;20057;-71
2022/07/14 05:12:45;;;;;;;3.53;1.12;;;;;;;23.68;40.94;98985.50;4485184;31;20473;-70
2022/07/14 05:15:13;;;;;;;1.37;1.15;;;;;;;23.97;40.65;98985.94;4484147;31;20514;-70
2022/07/14 05:17:40;;;;;;;1.42;0.90;;;;;;;24.09;40.15;98994.91;4485059;32;20411;-71
2022/07/14 05:20:09;;;;;;;1.90;1.23;;;;;;;24.13;40.32;98987.25;4484606;32;20366;-70
2022/07/14 05:22:38;;;;;;;3.83;1.00;;;;;;;24.26;40.26;98992.47;4485342;31;20485;-71
2022/07/14 05:25:07;;;;;;;3.05;1.10;;;;;;;24.40;39.89;98999.34;4484216;31;20136;-71
2022/07/14 05:27:39;;;;;;;2.15;1.10;;;;;;;24.52;39.76;99003.97;4484795;31;20088;-70
2022/07/14 05:30:08;;;;;;;4.20;1.37;;;;;;;24.56;39.40;99000.63;4484835;31;20076;-70
2022/07/14 05:32:36;;;;;;;1.17;1.08;;;;;;;24.65;39.14;99000.34;4485353;31;20133;-71
2022/07/14 05:35:04;;;;;;;2.30;0.98;;;;;;;24.67;39.13;99003.63;4484882;31;20100;-71
2022/07/14 05:37:32;;;;;;;1.12;1.02;;;;;;;24.79;38.67;98991.94;4485248;31;20092;-71
2022/07/14 05:39:59;;;;;;;3.83;1.20;;;;;;;24.83;38.77;98986.97;4484667;31;20131;-71
2022/07/14 05:42:26;;;;;;;1.52;0.98;;;;;;;24.75;39.10;98996.09;4484762;31;20088;-71
2022/07/14 05:44:54;;;;;;;1.45;1.00;;;;;;;24.95;38.86;98992.34;4484739;31;20092;-71
2022/07/14 05:47:21;;;;;;;0.98;0.93;;;;;;;24.91;38.81;98989.31;4485145;31;20095;-71
2022/07/14 05:49:49;;;;;;;6.18;0.90;;;;;;;24.98;38.61;98991.91;4484278;32;20107;-71
2022/07/14 05:52:16;;;;;;;3.42;1.23;;;;;;;25.12;38.50;98985.34;4484988;31;20126;-70
2022/07/14 05:54:43;;;;;;;2.25;1.10;;;;;;;25.32;37.93;98987.78;4484676;31;20088;-70
2022/07/14 05:57:13;;;;;;;1.75;1.00;;;;;;;25.36;37.66;98984.63;4484822;31;20160;-71
2022/07/14 05:59:41;;;;;;;2.87;1.08;;;;;;;25.33;37.79;98985.94;4475727;32;20101;-71
2022/07/14 06:02:13;;;;;;;1.15;0.93;;;;;;;25.24;37.56;98980.03;4469174;32;20146;-71
2022/07/14 06:04:40;;;;;;;1.73;1.02;;;;;;;25.35;37.80;98977.66;4472369;32;20179;-72
2022/07/14 06:07:09;;;;;;;1.25;1.10;;;;;;;25.63;37.21;98979.69;4484095;31;20208;-70
2022/07/14 06:09:37;;;;;;;2.67;0.90;;;;;;;25.85;36.03;98982.66;4484309;31;20126;-70
2022/07/14 06:12:06;;;;;;;2.50;1.10;;;;;;;25.96;36.38;98981.03;4484267;31;20161;-70
2022/07/14 06:14:34;;;;;;;2.03;1.23;;;;;;;26.13;35.77;98984.69;4484140;31;20088;-70
2022/07/14 06:17:01;;;;;;;2.55;0.80;;;;;;;26.14;35.87;98978.25;4484106;32;20085;-70
2022/07/14 06:19:29;;;;;;;2.25;0.80;;;;;;;26.18;35.84;98981.31;4483586;31;20104;-70
2022/07/14 06:21:56;;;;;;;3.00;1.02;;;;;;;26.25;36.02;98978.50;4486384;31;20410;-70
2022/07/14 06:24:24;;;;;;;1.15;0.85;;;;;;;26.29;35.58;98975.09;4486150;31;20092;-70
2022/07/14 06:26:51;;;;;;;10.10;1.25;;;;;;;26.32;35.36;98980.00;4485482;31;20126;-70
2022/07/14 06:29:19;;;;;;;44.88;4.55;;;;;;;26.36;35.30;98981.16;4486043;31;20144;-70
2022/07/14 06:31:46;;;;;;;25.20;3.03;;;;;;;26.42;35.67;98982.09;4485775;31;20088;-69
2022/07/14 06:34:14;;;;;;;3.03;1.20;;;;;;;26.48;35.10;98981.16;4486193;31;20084;-70
2022/07/14 06:36:42;;;;;;;2.65;1.05;;;;;;;26.68;34.81;98980.00;4486188;32;20181;-70
2022/07/14 06:39:09;;;;;;;2.83;1.08;;;;;;;26.70;34.73;98980.56;4486067;32;20123;-70
2022/07/14 06:41:37;;;;;;;2.97;1.05;;;;;;;26.87;34.59;98970.72;4486184;32;20143;-70
2022/07/14 06:44:05;;;;;;;2.85;1.00;;;;;;;26.87;34.34;98967.19;4485854;31;20178;-70
2022/07/14 06:46:34;;;;;;;5.82;1.30;;;;;;;26.87;34.77;98964.50;4484551;32;20121;-68
2022/07/14 06:49:02;;;;;;;5.95;1.10;;;;;;;27.16;34.50;98972.56;4486041;32;20088;-68
2022/07/14 06:51:29;;;;;;;3.33;1.42;;;;;;;27.11;34.43;98972.47;4486193;31;20433;-68
2022/07/14 06:53:57;;;;;;;1.20;1.10;;;;;;;27.34;33.58;98966.19;4485822;32;20109;-68
2022/07/14 06:56:24;;;;;;;1.67;0.88;;;;;;;27.55;33.07;98964.69;4484377;32;20093;-67
2022/07/14 06:58:51;;;;;;;1.80;1.00;;;;;;;27.81;33.14;98968.59;4470081;31;20169;-67
2022/07/14 07:01:18;;;;;;;6.07;1.27;;;;;;;27.96;33.64;98974.25;4483013;32;20084;-67
2022/07/14 07:03:46;;;;;;;10.48;1.65;;;;;;;28.30;33.00;98971.50;4485857;31;20442;-67
2022/07/14 07:08:59;;;;;;;4.12;0.98;;;;;;;28.35;32.81;98968.06;4469267;32;20609;-68
2022/07/14 07:11:26;;;;;;;4.57;1.12;;;;;;;28.54;32.15;98975.84;4470489;32;20524;-67
2022/07/14 07:13:53;;;;;;;3.03;1.25;;;;;;;28.71;31.62;98973.13;4483444;31;20084;-68
2022/07/14 07:16:21;;;;;;;1.95;0.93;;;;;;;28.82;31.79;98964.09;4484045;32;20536;-67
2022/07/14 07:18:48;;;;;;;1.65;1.10;;;;;;;29.12;31.18;98962.81;4475935;31;20179;-67
2022/07/14 07:21:18;;;;;;;4.05;1.10;;;;;;;28.92;31.72;98953.44;4483683;32;20828;-68
2022/07/14 07:23:46;;;;;;;3.03;1.00;;;;;;;28.72;31.34;98961.28;4481338;31;20104;-68
2022/07/14 07:26:15;;;;;;;3.47;1.10;;;;;;;28.67;31.70;98962.03;4469537;32;20118;-68
2022/07/14 07:28:42;;;;;;;2.37;1.02;;;;;;;28.81;30.93;98957.06;4470105;32;20154;-68
2022/07/14 07:31:10;;;;;;;2.15;1.37;;;;;;;28.81;31.45;98966.00;4469937;32;20088;-68
2022/07/14 07:33:38;;;;;;;5.45;1.17;;;;;;;28.82;31.47;98961.41;4476818;32;20100;-68
2022/07/14 07:36:06;;;;;;;1.17;0.90;;;;;;;28.85;31.72;98959.00;4485211;31;20140;-68
2022/07/14 07:38:34;;;;;;;3.37;1.10;;;;;;;28.85;31.10;98961.69;4485748;32;20605;-68
2022/07/14 07:41:02;;;;;;;1.45;1.00;;;;;;;28.68;31.62;98950.19;4485335;32;20179;-68
2022/07/14 07:43:30;;;;;;;6.68;1.60;;;;;;;28.90;31.20;98962.81;4485424;31;20618;-68
2022/07/14 07:45:57;;;;;;;2.42;1.00;;;;;;;28.88;31.39;98956.87;4485428;31;20096;-68
2022/07/14 07:48:25;;;;;;;4.82;1.20;;;;;;;29.13;31.64;98954.47;4485714;32;20532;-68
2022/07/14 07:50:52;;;;;;;4.32;0.90;;;;;;;28.94;31.48;98953.19;4485496;31;20126;-68
2022/07/14 07:53:20;;;;;;;2.85;0.95;;;;;;;29.11;30.95;98948.47;4484340;32;20101;-69
2022/07/14 07:55:47;;;;;;;2.67;1.00;;;;;;;29.09;31.26;98947.13;4485361;31;20538;-69
2022/07/14 07:58:14;;;;;;;3.53;0.90;;;;;;;29.25;31.62;98945.41;4485513;31;20119;-69
2022/07/14 08:00:42;;;;;;;0.88;0.88;;;;;;;29.36;30.24;98942.56;4484778;31;20092;-68
2022/07/14 08:03:09;;;;;;;3.33;0.95;;;;;;;29.58;30.38;98944.34;4485122;32;20104;-69
2022/07/14 08:05:36;;;;;;;3.92;1.17;;;;;;;29.65;29.06;98941.44;4484825;32;20115;-69
2022/07/14 08:08:21;;;;;;;0.80;0.80;;;;;;;29.79;29.75;98942.63;4483970;31;20093;-68
2022/07/14 08:10:48;;;;;;;1.90;1.00;;;;;;;29.96;27.71;98928.19;4484869;31;20144;-68
2022/07/14 08:13:15;;;;;;;3.78;1.10;;;;;;;29.78;28.00;98942.88;4485285;31;20123;-68
2022/07/14 08:15:43;;;;;;;2.37;0.90;;;;;;;29.79;27.98;98939.13;4484762;32;20084;-68
2022/07/14 08:18:10;;;;;;;1.95;0.75;;;;;;;29.71;28.28;98929.62;4485353;31;20096;-68
2022/07/14 08:20:38;;;;;;;1.70;0.70;;;;;;;29.90;28.33;98936.25;4485155;31;20568;-68
2022/07/14 08:23:05;;;;;;;2.20;1.00;;;;;;;30.05;28.13;98937.41;4485485;31;20772;-68
2022/07/14 08:25:33;;;;;;;1.08;0.95;;;;;;;30.00;27.14;98940.09;4485084;31;20092;-68
2022/07/14 08:28:00;;;;;;;2.55;0.93;;;;;;;30.13;26.97;98928.84;4484781;32;20173;-69
2022/07/14 08:30:27;;;;;;;0.85;0.82;;;;;;;30.17;27.13;98916.41;4485405;32;20091;-68
2022/07/14 08:32:55;;;;;;;4.57;0.77;;;;;;;30.38;27.37;98928.13;4485008;31;20104;-68
2022/07/14 08:35:24;;;;;;;2.92;1.08;;;;;;;30.68;26.35;98917.75;4485160;31;20130;-69
2022/07/14 08:37:53;;;;;;;2.58;0.77;;;;;;;30.91;25.73;98917.25;4484935;32;20161;-68
2022/07/14 08:40:23;;;;;;;4.95;0.80;;;;;;;30.81;24.63;98917.22;4485221;31;20169;-69
2022/07/14 08:42:51;;;;;;;0.90;0.68;;;;;;;30.79;24.81;98916.69;4484986;31;20153;-68
2022/07/14 08:45:21;;;;;;;0.93;0.73;;;;;;;30.68;25.05;98915.03;4485006;31;20407;-68
2022/07/14 08:47:50;;;;;;;3.10;0.80;;;;;;;30.66;24.24;98917.19;4485281;31;20084;-68
2022/07/14 08:50:19;;;;;;;2.37;0.68;;;;;;;30.73;24.49;98910.44;4485317;31;20116;-68
2022/07/14 08:52:47;;;;;;;1.00;0.80;;;;;;;30.78;24.83;98913.16;4484993;31;20498;-69
2022/07/14 08:55:16;;;;;;;0.70;0.70;;;;;;;30.56;25.16;98920.69;4469597;32;20088;-68
2022/07/14 08:57:44;;;;;;;1.27;0.82;;;;;;;30.74;24.81;98914.78;4469326;32;20101;-69
2022/07/14 09:00:17;;;;;;;0.70;0.70;;;;;;;30.92;25.32;98899.94;4481081;32;20130;-69
2022/07/14 09:02:52;;;;;;;7.50;0.95;;;;;;;30.86;25.12;98902.91;4485145;31;20088;-69
2022/07/14 09:05:41;;;;;;;2.80;1.10;;;;;;;31.21;25.05;98904.88;4478274;32;20097;-69
2022/07/14 09:08:11;;;;;;;2.10;0.90;;;;;;;31.17;24.29;98892.97;4485152;31;20088;-69
2022/07/14 09:10:39;;;;;;;4.22;1.00;;;;;;;30.98;24.67;98892.69;4482566;32;20502;-71
2022/07/14 09:13:29;;;;;;;1.42;0.90;;;;;;;30.81;25.22;98878.53;4484760;31;20144;-71
2022/07/14 09:16:19;;;;;;;3.53;0.80;;;;;;;30.86;24.38;98887.50;4484234;31;20096;-71
2022/07/14 09:19:07;;;;;;;2.00;0.70;;;;;;;31.20;24.34;98892.41;4481120;31;120969;-72
2022/07/14 09:21:37;;;;;;;1.55;0.80;;;;;;;31.50;23.83;98888.09;4469202;32;20084;-71
2022/07/14 09:24:06;;;;;;;6.72;0.90;;;;;;;31.49;23.51;98883.75;4469332;32;20093;-71
2022/07/14 09:26:45;;;;;;;1.15;0.80;;;;;;;31.35;23.96;98883.50;4484191;32;20085;-71
2022/07/14 09:29:16;;;;;;;0.80;0.80;;;;;;;31.70;23.57;98884.56;4484784;31;20154;-71
2022/07/14 09:31:43;;;;;;;2.78;1.00;;;;;;;31.62;23.69;98885.94;4484885;31;20102;-72
2022/07/14 09:34:26;;;;;;;1.00;0.82;;;;;;;31.71;23.42;98874.56;4485015;31;20092;-72
2022/07/14 09:37:18;;;;;;;1.37;0.95;;;;;;;31.79;23.27;98871.28;4484543;31;20118;-72
2022/07/14 09:39:52;;;;;;;5.25;1.00;;;;;;;31.81;23.07;98866.37;4484867;31;20084;-72
2022/07/14 09:42:20;;;;;;;3.05;1.00;;;;;;;31.75;23.02;98870.19;4484693;32;20454;-72
2022/07/14 09:44:47;;;;;;;4.85;1.00;;;;;;;31.74;23.13;98865.87;4483101;32;20092;-72
2022/07/14 09:47:14;;;;;;;2.78;0.80;;;;;;;31.95;23.23;98875.56;4483298;32;20093;-71
2022/07/14 09:49:42;;;;;;;2.95;0.95;;;;;;;32.05;23.21;98868.50;4484813;31;20104;-71
2022/07/14 09:52:32;;;;;;;3.87;1.27;;;;;;;32.21;23.20;98864.69;4484716;32;20096;-72
2022/07/14 09:54:59;;;;;;;2.40;1.00;;;;;;;32.44;22.57;98871.34;4482393;32;20152;-72
2022/07/14 09:57:27;;;;;;;2.15;0.93;;;;;;;32.22;22.76;98874.44;4483627;31;20088;-72
2022/07/14 09:59:59;;;;;;;2.15;0.90;;;;;;;32.37;22.52;98858.09;4473591;32;20556;-72
2022/07/14 10:02:29;;;;;;;1.10;0.90;;;;;;;32.64;22.71;98859.56;4467339;32;20109;-72
2022/07/14 10:05:07;;;;;;;1.65;0.95;;;;;;;32.88;22.54;98857.00;4473776;32;20096;-72
2022/07/14 10:07:43;;;;;;;9.38;1.00;;;;;;;33.13;22.19;98855.19;4482478;32;20155;-72
2022/07/14 10:10:12;;;;;;;1.85;1.10;;;;;;;32.79;22.10;98855.97;4482380;32;20088;-70
2022/07/14 10:12:41;;;;;;;21.62;2.03;;;;;;;32.75;22.25;98852.22;4483821;31;20126;-69
2022/07/14 10:15:10;;;;;;;3.37;0.82;;;;;;;32.65;22.25;98847.66;4483875;31;20088;-69
2022/07/14 10:17:41;;;;;;;1.17;1.00;;;;;;;32.67;21.17;98850.09;4484211;31;20129;-70
2022/07/14 10:20:11;;;;;;;1.77;1.12;;;;;;;32.72;21.69;98850.06;4484166;31;20089;-70
2022/07/14 10:22:40;;;;;;;1.35;0.90;;;;;;;32.76;21.60;98844.88;4484112;32;20107;-69
2022/07/14 10:25:09;;;;;;;1.17;0.85;;;;;;;32.68;22.54;98841.66;4483931;31;20100;-69
2022/07/14 10:27:41;;;;;;;0.82;0.80;;;;;;;32.78;21.74;98829.97;4483832;31;20118;-70
2022/07/14 10:30:09;;;;;;;4.78;0.90;;;;;;;32.93;21.67;98834.47;4484159;31;20100;-71
2022/07/14 10:32:43;;;;;;;4.03;0.93;;;;;;;32.77;21.39;98831.03;4482744;32;20161;-70
2022/07/14 10:35:28;;;;;;;0.73;0.73;;;;;;;33.09;21.51;98824.28;4483988;31;20125;-69
2022/07/14 10:38:07;;;;;;;2.20;0.80;;;;;;;33.08;21.58;98826.19;4482852;31;20084;-70
2022/07/14 10:41:12;;;;;;;1.92;1.20;;;;;;;32.97;21.70;98816.50;4482840;32;20120;-70
2022/07/14 10:43:53;;;;;;;3.92;0.82;;;;;;;32.77;21.38;98813.97;4483063;31;20088;-69
2022/07/14 10:46:40;;;;;;;1.20;0.82;;;;;;;32.67;21.87;98821.09;4482919;32;20088;-69
2022/07/14 10:49:09;;;;;;;2.87;1.05;;;;;;;32.82;21.95;98817.41;4483236;31;20103;-69
2022/07/14 10:51:44;;;;;;;1.50;1.00;;;;;;;33.02;21.51;98813.75;4482425;32;20100;-69
2022/07/14 10:54:27;;;;;;;3.30;0.90;;;;;;;33.10;20.99;98811.50;4483882;31;20453;-69
2022/07/14 10:57:13;;;;;;;0.98;0.88;;;;;;;33.44;21.04;98811.50;4483769;31;20474;-69
2022/07/14 10:59:44;;;;;;;1.40;0.70;;;;;;;33.40;20.84;98799.56;4475472;31;20430;-69
2022/07/14 11:02:12;;;;;;;1.35;0.80;;;;;;;33.31;20.73;98798.59;4467901;32;20131;-69
2022/07/14 11:05:04;;;;;;;0.70;0.70;;;;;;;33.20;21.07;98806.03;4474605;32;20119;-71
2022/07/14 11:07:50;;;;;;;3.35;0.90;;;;;;;33.27;20.97;98792.94;4469369;32;20648;-72
2022/07/14 11:10:20;;;;;;;1.37;0.82;;;;;;;33.42;20.97;98798.19;4469768;32;20081;-72
2022/07/14 11:12:59;;;;;;;1.77;0.80;;;;;;;33.22;21.33;98795.69;4470176;32;20116;-72
2022/07/14 11:15:39;;;;;;;5.15;0.98;;;;;;;33.23;21.11;98792.69;4469929;32;20084;-72
2022/07/14 11:18:21;;;;;;;1.67;0.90;;;;;;;33.29;20.86;98781.78;4470196;32;20084;-72
2022/07/14 11:20:49;;;;;;;1.90;1.27;;;;;;;33.27;20.57;98786.69;4472535;32;20089;-72
2022/07/14 11:23:27;;;;;;;4.68;0.90;;;;;;;33.35;20.30;98775.19;4485853;31;20100;-72
2022/07/14 11:25:56;;;;;;;1.00;0.90;;;;;;;33.71;20.48;98793.81;4485609;31;20110;-72
2022/07/14 11:28:33;;;;;;;2.47;0.70;;;;;;;33.93;20.35;98785.16;4484420;32;20096;-72
2022/07/14 11:31:21;;;;;;;3.47;0.80;;;;;;;33.85;19.68;98788.53;4485435;31;20088;-72
2022/07/14 11:36:38;;;;;;;0.90;0.80;;;;;;;34.16;19.15;98780.78;4485326;32;20557;-72
2022/07/14 11:39:16;;;;;;;6.97;0.93;;;;;;;34.23;19.09;98773.06;4484888;31;20127;-72
2022/07/14 11:41:45;;;;;;;1.02;0.90;;;;;;;34.42;18.53;98764.94;4485234;31;20153;-72
2022/07/14 11:44:41;;;;;;;3.65;0.90;;;;;;;34.68;18.82;98753.66;4484847;31;20418;-72
2022/07/14 11:47:20;;;;;;;4.37;0.98;;;;;;;34.67;19.07;98765.63;4471824;32;20149;-72
2022/07/14 11:50:09;;;;;;;2.55;0.80;;;;;;;34.76;18.86;98761.16;4485300;31;20083;-72
2022/07/14 11:52:40;;;;;;;5.25;1.02;;;;;;;34.75;19.19;98756.81;4485337;31;20088;-72
2022/07/14 11:55:11;;;;;;;2.42;0.90;;;;;;;35.06;18.19;98766.41;4485142;32;20119;-72
2022/07/14 11:57:50;;;;;;;1.10;0.80;;;;;;;34.66;18.32;98758.59;4485620;31;20080;-72